createdAt,value
2022-10-17T00:01:12.927Z,101418.84
2022-10-17T00:03:41.803Z,101416.56
2022-10-17T00:06:12.743Z,101412.59
2022-10-17T00:08:42.315Z,101414.22
2022-10-17T00:11:17.464Z,101409.63
2022-10-17T00:13:48.100Z,101402.72
2022-10-17T00:16:33.797Z,101408.38
2022-10-17T00:19:03.488Z,101412.53
2022-10-17T00:21:32.042Z,101406.06
2022-10-17T00:24:01.150Z,101401.66
2022-10-17T00:26:29.735Z,101396.66
2022-10-17T00:28:58.592Z,101398.75
2022-10-17T00:31:27.175Z,101396.63
2022-10-17T00:33:55.513Z,101400.22
2022-10-17T00:36:26.524Z,101395.63
2022-10-17T00:38:57.978Z,101392.88
2022-10-17T00:41:29.877Z,101392.69
2022-10-17T00:44:24.565Z,101391.66
2022-10-17T00:46:53.865Z,101389.34
2022-10-17T00:49:24.526Z,101393.31
2022-10-17T00:51:56.043Z,101392.91
2022-10-17T00:54:30.643Z,101393.31
2022-10-17T00:56:59.866Z,101391.66
2022-10-17T00:59:29.956Z,101391.06
2022-10-17T01:02:05.478Z,101390.69
2022-10-17T01:04:37.563Z,101390.06
2022-10-17T01:07:05.891Z,101390.47
2022-10-17T01:09:34.502Z,101385.19
2022-10-17T01:12:11.752Z,101380.00
2022-10-17T01:15:03.092Z,101389.44
2022-10-17T01:18:06.428Z,101388.41
2022-10-17T01:20:46.768Z,101391.31
2022-10-17T01:23:54.283Z,101395.50
2022-10-17T01:27:16.417Z,101393.41
2022-10-17T01:30:03.051Z,101393.41
2022-10-17T01:32:47.921Z,101387.56
2022-10-17T01:35:30.390Z,101389.66
2022-10-17T01:38:10.726Z,101385.47
2022-10-17T01:40:50.948Z,101382.97
2022-10-17T01:43:47.507Z,101383.81
2022-10-17T01:46:37.257Z,101389.25
2022-10-17T01:49:10.578Z,101377.94
2022-10-17T01:51:45.190Z,101373.13
2022-10-17T01:54:19.813Z,101362.88
2022-10-17T01:56:52.365Z,101373.75
2022-10-17T01:59:25.499Z,101374.97
2022-10-17T02:01:57.304Z,101380.03
2022-10-17T02:04:26.247Z,101382.97
2022-10-17T02:06:54.780Z,101377.53
2022-10-17T02:09:26.042Z,101369.78
2022-10-17T02:12:31.772Z,101361.63
2022-10-17T02:15:08.052Z,101355.75
2022-10-17T02:18:09.859Z,101359.94
2022-10-17T02:20:52.620Z,101357.88
2022-10-17T02:23:33.711Z,101360.34
2022-10-17T02:26:11.319Z,101358.06
2022-10-17T02:29:09.837Z,101359.06
2022-10-17T02:31:55.874Z,101362.84
2022-10-17T02:34:36.028Z,101355.75
2022-10-17T02:37:07.885Z,101354.72
2022-10-17T02:39:39.296Z,101355.34
2022-10-17T02:42:11.696Z,101363.06
2022-10-17T02:44:43.969Z,101354.72
2022-10-17T02:47:33.305Z,101360.78
2022-10-17T02:50:02.169Z,101355.75
2022-10-17T02:52:52.624Z,101349.69
2022-10-17T02:55:35.873Z,101355.09
2022-10-17T02:58:09.993Z,101366.59
2022-10-17T03:00:39.285Z,101354.44
2022-10-17T03:03:23.110Z,101356.97
2022-10-17T03:05:52.323Z,101351.94
2022-10-17T03:08:21.869Z,101351.09
2022-10-17T03:10:50.574Z,101354.44
2022-10-17T03:13:18.945Z,101354.84
2022-10-17T03:15:47.385Z,101351.72
2022-10-17T03:18:15.787Z,101356.53
2022-10-17T03:20:44.241Z,101354.84
2022-10-17T03:23:12.606Z,101356.13
2022-10-17T03:25:41.835Z,101360.94
2022-10-17T03:28:11.722Z,101361.19
2022-10-17T03:30:40.047Z,101368.91
2022-10-17T03:33:08.372Z,101368.50
2022-10-17T03:35:40.235Z,101367.47
2022-10-17T03:38:08.660Z,101369.53
2022-10-17T03:40:37.040Z,101357.84
2022-10-17T03:43:05.586Z,101362.88
2022-10-17T03:45:33.945Z,101354.50
2022-10-17T03:48:02.283Z,101366.66
2022-10-17T03:50:30.603Z,101349.25
2022-10-17T03:52:59.220Z,101355.78
2022-10-17T03:55:27.564Z,101364.75
2022-10-17T03:57:55.924Z,101359.31
2022-10-17T04:00:24.252Z,101353.88
2022-10-17T04:02:52.647Z,101363.91
2022-10-17T04:05:21.022Z,101360.78
2022-10-17T04:07:49.586Z,101362.47
2022-10-17T04:10:18.198Z,101364.53
2022-10-17T04:12:46.562Z,101368.53
2022-10-17T04:15:15.283Z,101377.94
2022-10-17T04:17:43.641Z,101371.44
2022-10-17T04:20:13.024Z,101364.56
2022-10-17T04:22:41.354Z,101369.38
2022-10-17T04:25:09.802Z,101375.41
2022-10-17T04:27:38.139Z,101379.81
2022-10-17T04:30:07.163Z,101387.97
2022-10-17T04:32:39.118Z,101392.97
2022-10-17T04:35:09.187Z,101386.91
2022-10-17T04:37:37.567Z,101389.63
2022-10-17T04:40:06.601Z,101387.97
2022-10-17T04:42:35.016Z,101390.88
2022-10-17T04:45:04.384Z,101399.28
2022-10-17T04:47:32.784Z,101399.66
2022-10-17T04:50:01.149Z,101397.78
2022-10-17T04:52:29.937Z,101404.28
2022-10-17T04:54:58.504Z,101430.25
2022-10-17T04:57:27.493Z,101425.22
2022-10-17T04:59:55.912Z,101427.72
2022-10-17T05:02:24.255Z,101426.47
2022-10-17T05:04:52.610Z,101420.59
2022-10-17T05:07:20.954Z,101431.50
2022-10-17T05:09:49.275Z,101432.34
2022-10-17T05:12:17.664Z,101415.81
2022-10-17T05:14:46.056Z,101416.44
2022-10-17T05:17:14.413Z,101423.31
2022-10-17T05:19:43.889Z,101429.81
2022-10-17T05:22:12.361Z,101426.88
2022-10-17T05:24:40.722Z,101417.22
2022-10-17T05:27:09.130Z,101424.34
2022-10-17T05:29:37.555Z,101425.38
2022-10-17T05:32:06.162Z,101424.75
2022-10-17T05:34:34.871Z,101433.13
2022-10-17T05:37:03.305Z,101440.22
2022-10-17T05:39:31.829Z,101442.72
2022-10-17T05:42:00.320Z,101443.56
2022-10-17T05:44:28.727Z,101448.38
2022-10-17T05:46:57.083Z,101445.44
2022-10-17T05:49:33.420Z,101450.06
2022-10-17T05:52:12.256Z,101449.81
2022-10-17T05:54:40.694Z,101458.19
2022-10-17T05:57:09.104Z,101449.22
2022-10-17T05:59:37.532Z,101460.31
2022-10-17T06:02:06.499Z,101457.22
2022-10-17T06:04:35.076Z,101449.66
2022-10-17T06:07:05.041Z,101463.28
2022-10-17T06:09:33.376Z,101456.13
2022-10-17T06:12:02.003Z,101452.38
2022-10-17T06:14:30.436Z,101458.22
2022-10-17T06:16:59.320Z,101461.16
2022-10-17T06:19:27.652Z,101462.59
2022-10-17T06:21:57.078Z,101466.16
2022-10-17T06:24:25.448Z,101457.81
2022-10-17T06:26:53.878Z,101462.00
2022-10-17T06:29:22.448Z,101463.44
2022-10-17T06:31:51.106Z,101463.63
2022-10-17T06:34:19.516Z,101460.66
2022-10-17T06:36:48.222Z,101467.34
2022-10-17T06:39:16.712Z,101466.31
2022-10-17T06:41:45.227Z,101483.28
2022-10-17T06:44:13.781Z,101471.13
2022-10-17T06:46:42.163Z,101474.28
2022-10-17T06:49:10.876Z,101477.28
2022-10-17T06:51:39.230Z,101479.94
2022-10-17T06:54:07.604Z,101482.88
2022-10-17T06:56:36.191Z,101486.59
2022-10-17T06:59:04.584Z,101475.72
2022-10-17T07:01:34.227Z,101482.41
2022-10-17T07:04:02.694Z,101484.06
2022-10-17T07:06:31.584Z,101477.31
2022-10-17T07:09:02.592Z,101491.81
2022-10-17T07:11:30.968Z,101492.38
2022-10-17T07:13:59.432Z,101494.31
2022-10-17T07:16:28.426Z,101505.81
2022-10-17T07:18:56.953Z,101501.31
2022-10-17T07:21:25.475Z,101506.13
2022-10-17T07:23:53.929Z,101516.47
2022-10-17T07:26:22.540Z,101522.09
2022-10-17T07:28:53.580Z,101523.09
2022-10-17T07:31:23.539Z,101522.50
2022-10-17T07:33:52.192Z,101524.78
2022-10-17T07:36:20.653Z,101539.69
2022-10-17T07:38:49.083Z,101545.53
2022-10-17T07:41:21.656Z,101562.34
2022-10-17T07:43:50.473Z,101576.41
2022-10-17T07:46:19.974Z,101599.44
2022-10-17T07:48:48.294Z,101607.41
2022-10-17T07:51:19.988Z,101616.38
2022-10-17T07:53:48.986Z,101628.44
2022-10-17T07:56:17.438Z,101626.50
2022-10-17T07:58:45.811Z,101633.66
2022-10-17T08:01:15.626Z,101638.28
2022-10-17T08:03:48.822Z,101643.66
2022-10-17T08:06:18.248Z,101650.94
2022-10-17T08:08:46.837Z,101652.19
2022-10-17T08:11:15.886Z,101654.88
2022-10-17T08:13:44.506Z,101650.91
2022-10-17T08:16:14.120Z,101657.84
2022-10-17T08:18:43.778Z,101665.34
2022-10-17T08:21:13.291Z,101676.00
2022-10-17T08:23:41.806Z,101692.19
2022-10-17T08:26:13.284Z,101678.97
2022-10-17T08:28:41.898Z,101691.78
2022-10-17T08:31:20.812Z,101696.38
2022-10-17T08:33:50.437Z,101698.66
2022-10-17T08:36:20.638Z,101700.34
2022-10-17T08:38:52.643Z,101697.19
2022-10-17T08:41:52.294Z,101701.44
2022-10-17T08:44:58.299Z,101711.06
2022-10-17T08:47:34.461Z,101719.03
2022-10-17T08:50:06.829Z,101690.19
2022-10-17T08:52:40.761Z,101695.13
2022-10-17T08:55:21.488Z,101705.00
2022-10-17T08:57:50.323Z,101696.97
2022-10-17T09:00:20.895Z,101704.78
2022-10-17T09:03:16.639Z,101695.94
2022-10-17T09:05:56.393Z,101707.50
2022-10-17T09:08:53.140Z,101713.56
2022-10-17T09:11:48.437Z,101710.19
2022-10-17T09:14:26.178Z,101730.88
2022-10-17T09:17:03.459Z,101744.13
2022-10-17T09:20:06.500Z,101760.75
2022-10-17T09:22:42.765Z,101834.25
2022-10-17T09:25:16.448Z,101764.16
2022-10-17T09:27:49.719Z,101700.00
2022-10-17T09:30:46.273Z,101702.06
2022-10-17T09:33:34.681Z,101676.25
2022-10-17T09:36:16.992Z,101683.00
2022-10-17T09:38:52.415Z,101686.53
2022-10-17T09:41:49.210Z,101697.63
2022-10-17T09:44:25.204Z,101712.69
2022-10-17T09:47:19.385Z,101725.53
2022-10-17T09:49:49.441Z,101737.44
2022-10-17T09:52:24.393Z,101737.84
2022-10-17T09:54:57.545Z,101746.28
2022-10-17T09:57:26.326Z,101735.22
2022-10-17T10:00:07.082Z,101707.84
2022-10-17T10:02:40.704Z,101707.50
2022-10-17T10:05:18.897Z,101701.66
2022-10-17T10:08:12.605Z,101716.75
2022-10-17T10:10:44.376Z,101720.09
2022-10-17T10:13:12.715Z,101718.41
2022-10-17T10:15:46.185Z,101715.50
2022-10-17T10:21:23.628Z,101739.97
2022-10-17T10:24:10.299Z,101755.66
2022-10-17T10:26:43.455Z,101764.94
2022-10-17T10:29:40.474Z,101761.97
2022-10-17T10:35:18.898Z,101762.81
2022-10-17T10:37:54.053Z,101762.19
2022-10-17T10:40:32.973Z,101772.44
2022-10-17T10:43:05.324Z,101792.56
2022-10-17T10:45:47.611Z,101807.81
2022-10-17T10:48:21.670Z,101829.06
2022-10-17T10:51:00.746Z,101834.94
2022-10-17T10:54:06.780Z,101828.38
2022-10-17T10:56:43.716Z,101816.88
2022-10-17T10:59:49.020Z,101805.31
2022-10-17T11:02:37.507Z,101813.28
2022-10-17T11:05:14.103Z,101825.44
2022-10-17T11:07:52.852Z,101824.78
2022-10-17T11:10:44.559Z,101826.34
2022-10-17T11:13:20.980Z,101830.66
2022-10-17T11:15:57.647Z,101829.38
2022-10-17T11:18:39.266Z,101840.28
2022-10-17T11:21:16.885Z,101846.63
2022-10-17T11:23:56.232Z,101847.94
2022-10-17T11:26:31.809Z,101845.25
2022-10-17T11:29:04.404Z,101857.63
2022-10-17T11:31:38.263Z,101858.88
2022-10-17T11:34:29.380Z,101868.97
2022-10-17T11:37:08.244Z,101872.50
2022-10-17T11:39:48.585Z,101871.88
2022-10-17T11:42:32.647Z,101873.94
2022-10-17T11:45:22.370Z,101872.34
2022-10-17T11:47:55.339Z,101877.00
2022-10-17T11:53:28.877Z,101885.78
2022-10-17T11:56:01.021Z,101875.44
2022-10-17T11:59:14.387Z,101882.31
2022-10-17T12:01:54.568Z,101878.53
2022-10-17T12:04:57.159Z,101886.50
2022-10-17T12:07:34.848Z,101887.19
2022-10-17T12:10:18.549Z,101899.94
2022-10-17T12:12:48.143Z,101902.56
2022-10-17T12:15:19.643Z,101894.72
2022-10-17T12:18:02.246Z,101892.66
2022-10-17T12:20:38.691Z,101907.16
2022-10-17T12:23:13.216Z,101903.81
2022-10-17T12:26:01.694Z,101897.53
2022-10-17T12:28:47.122Z,101901.13
2022-10-17T12:31:15.737Z,101895.22
2022-10-17T12:34:00.509Z,101904.84
2022-10-17T12:36:28.926Z,101903.41
2022-10-17T12:39:03.384Z,101915.94
2022-10-17T12:41:52.248Z,101901.16
2022-10-17T12:44:35.993Z,101911.25
2022-10-17T12:47:10.884Z,101914.00
2022-10-17T12:49:46.502Z,101914.25
2022-10-17T12:52:23.845Z,101927.50
2022-10-17T12:55:11.510Z,101933.16
2022-10-17T12:57:56.621Z,101932.69
2022-10-17T13:00:33.741Z,101929.34
2022-10-17T13:03:11.428Z,101937.56
2022-10-17T13:05:43.459Z,101939.28
2022-10-17T13:08:20.523Z,101934.00
2022-10-17T13:10:52.557Z,101940.72
2022-10-17T13:13:45.114Z,101935.47
2022-10-17T13:16:30.057Z,101950.00
2022-10-17T13:19:00.045Z,101945.44
2022-10-17T13:21:29.415Z,101951.78
2022-10-17T13:23:57.832Z,101957.63
2022-10-17T13:26:28.192Z,101956.13
2022-10-17T13:29:28.540Z,101963.13
2022-10-17T13:32:01.442Z,101966.25
2022-10-17T13:34:31.356Z,101976.38
2022-10-17T13:37:05.325Z,101983.50
2022-10-17T13:39:54.386Z,101984.34
2022-10-17T13:42:28.383Z,101987.91
2022-10-17T13:44:58.580Z,101984.13
2022-10-17T13:47:36.934Z,101980.31
2022-10-17T13:50:12.776Z,101990.81
2022-10-17T13:53:05.061Z,101982.47
2022-10-17T13:55:33.495Z,102000.13
2022-10-17T13:58:50.609Z,102002.41
2022-10-17T14:01:20.984Z,102006.81
2022-10-17T14:03:54.722Z,102017.97
2022-10-17T14:06:31.436Z,102018.19
2022-10-17T14:09:16.369Z,102022.59
2022-10-17T14:11:56.044Z,102033.91
2022-10-17T14:14:26.059Z,102017.69
2022-10-17T14:16:54.864Z,102037.69
2022-10-17T14:19:27.195Z,102038.97
2022-10-17T14:22:15.597Z,102045.28
2022-10-17T14:24:44.671Z,102045.06
2022-10-17T14:27:34.696Z,102043.19
2022-10-17T14:30:07.080Z,102049.47
2022-10-17T14:32:37.529Z,102054.94
2022-10-17T14:35:24.423Z,102054.09
2022-10-17T14:38:02.713Z,102060.00
2022-10-17T14:40:33.438Z,102055.16
2022-10-17T14:43:05.824Z,102051.13
2022-10-17T14:45:37.285Z,102038.13
2022-10-17T14:48:16.134Z,102042.13
2022-10-17T14:51:17.232Z,102039.97
2022-10-17T14:54:05.601Z,102035.75
2022-10-17T14:56:39.369Z,102049.00
2022-10-17T14:59:13.737Z,102041.44
2022-10-17T15:01:44.120Z,102038.47
2022-10-17T15:04:12.497Z,102039.97
2022-10-17T15:06:41.342Z,102038.31
2022-10-17T15:09:11.456Z,102044.13
2022-10-17T15:11:40.008Z,102054.88
2022-10-17T15:14:08.404Z,102050.00
2022-10-17T15:16:39.361Z,102054.25
2022-10-17T15:19:07.752Z,102066.81
2022-10-17T15:21:44.641Z,102081.97
2022-10-17T15:24:15.851Z,102079.47
2022-10-17T15:26:45.464Z,102092.03
2022-10-17T15:29:15.909Z,102099.63
2022-10-17T15:31:44.363Z,102099.00
2022-10-17T15:34:12.698Z,102102.59
2022-10-17T15:36:42.658Z,102113.13
2022-10-17T15:39:10.984Z,102110.19
2022-10-17T15:41:39.491Z,102111.00
2022-10-17T15:44:08.157Z,102122.81
2022-10-17T15:46:40.485Z,102113.94
2022-10-17T15:49:14.274Z,102117.75
2022-10-17T15:51:42.981Z,102113.75
2022-10-17T15:56:46.522Z,102122.41
2022-10-17T15:59:18.500Z,102113.59
2022-10-17T16:01:48.634Z,102114.81
2022-10-17T16:04:18.382Z,102114.00
2022-10-17T16:06:46.734Z,102122.63
2022-10-17T16:09:15.082Z,102119.88
2022-10-17T16:11:44.625Z,102129.78
2022-10-17T16:14:15.325Z,102135.03
2022-10-17T16:16:43.861Z,102132.28
2022-10-17T16:19:12.747Z,102136.94
2022-10-17T16:21:41.666Z,102134.41
2022-10-17T16:24:13.212Z,102138.19
2022-10-17T16:26:41.811Z,102143.66
2022-10-17T16:29:10.511Z,102142.59
2022-10-17T16:31:42.881Z,102144.91
2022-10-17T16:34:13.425Z,102139.84
2022-10-17T16:36:42.650Z,102145.91
2022-10-17T16:39:11.039Z,102148.44
2022-10-17T16:41:39.929Z,102148.03
2022-10-17T16:44:10.993Z,102137.69
2022-10-17T16:46:39.344Z,102146.88
2022-10-17T16:49:07.911Z,102152.56
2022-10-17T16:51:37.664Z,102145.41
2022-10-17T16:54:06.131Z,102150.72
2022-10-17T16:56:34.567Z,102155.97
2022-10-17T16:59:03.557Z,102151.97
2022-10-17T17:01:32.157Z,102153.84
2022-10-17T17:04:01.134Z,102157.88
2022-10-17T17:06:30.445Z,102148.81
2022-10-17T17:08:59.061Z,102158.41
2022-10-17T17:11:28.891Z,102166.88
2022-10-17T17:13:58.894Z,102167.09
2022-10-17T17:16:28.736Z,102174.91
2022-10-17T17:19:02.091Z,102170.03
2022-10-17T17:21:31.657Z,102170.63
2022-10-17T17:24:01.466Z,102175.63
2022-10-17T17:26:35.796Z,102179.78
2022-10-17T17:29:04.679Z,102180.75
2022-10-17T17:31:35.127Z,102188.94
2022-10-17T17:34:03.941Z,102189.09
2022-10-17T17:36:37.019Z,102189.34
2022-10-17T17:39:10.555Z,102195.66
2022-10-17T17:41:39.908Z,102196.06
2022-10-17T17:44:12.534Z,102195.88
2022-10-17T17:46:45.109Z,102209.50
2022-10-17T17:49:13.476Z,102206.59
2022-10-17T17:51:46.168Z,102206.59
2022-10-17T17:54:14.740Z,102216.06
2022-10-17T17:56:43.161Z,102213.19
2022-10-17T17:59:13.364Z,102213.94
2022-10-17T18:01:42.963Z,102219.22
2022-10-17T18:04:11.920Z,102219.88
2022-10-17T18:06:40.285Z,102219.13
2022-10-17T18:09:09.344Z,102226.50
2022-10-17T18:11:38.273Z,102217.28
2022-10-17T18:14:11.846Z,102220.25
2022-10-17T18:16:40.458Z,102225.97
2022-10-17T18:19:11.598Z,102225.47
2022-10-17T18:21:39.956Z,102240.47
2022-10-17T18:24:08.672Z,102232.22
2022-10-17T18:26:37.071Z,102239.34
2022-10-17T18:29:05.499Z,102242.22
2022-10-17T18:31:35.779Z,102244.72
2022-10-17T18:34:05.567Z,102247.00
2022-10-17T18:36:35.098Z,102244.88
2022-10-17T18:39:05.066Z,102244.38
2022-10-17T18:41:34.041Z,102240.88
2022-10-17T18:44:05.517Z,102244.66
2022-10-17T18:46:40.131Z,102251.22
2022-10-17T18:49:10.608Z,102248.06
2022-10-17T18:51:39.655Z,102250.91
2022-10-17T18:54:14.293Z,102257.91
2022-10-17T18:56:43.455Z,102256.25
2022-10-17T18:59:11.899Z,102257.28
2022-10-17T19:01:40.319Z,102245.53
2022-10-17T19:04:09.321Z,102254.78
2022-10-17T19:06:39.111Z,102256.13
2022-10-17T19:09:09.686Z,102260.34
2022-10-17T19:11:38.752Z,102258.44
2022-10-17T19:14:12.834Z,102255.69
2022-10-17T19:16:46.348Z,102251.06
2022-10-17T19:19:19.191Z,102259.28
2022-10-17T19:21:47.911Z,102262.59
2022-10-17T19:24:22.376Z,102261.91
2022-10-17T19:26:53.502Z,102258.72
2022-10-17T19:29:27.603Z,102256.25
2022-10-17T19:34:24.435Z,102268.16
2022-10-17T19:36:52.862Z,102275.44
2022-10-17T19:39:23.466Z,102264.63
2022-10-17T19:41:52.496Z,102265.38
2022-10-17T19:44:22.059Z,102264.13
2022-10-17T19:46:50.617Z,102265.38
2022-10-17T19:49:19.017Z,102269.78
2022-10-17T19:51:47.658Z,102282.69
2022-10-17T19:54:18.821Z,102280.25
2022-10-17T19:56:48.432Z,102282.19
2022-10-17T19:59:17.748Z,102286.50
2022-10-17T20:01:46.560Z,102283.75
2022-10-17T20:04:17.079Z,102282.88
2022-10-17T20:06:45.501Z,102281.06
2022-10-17T20:09:16.988Z,102280.31
2022-10-17T20:11:46.089Z,102289.88
2022-10-17T20:14:14.435Z,102285.50
2022-10-17T20:16:44.696Z,102291.03
2022-10-17T20:19:13.750Z,102298.69
2022-10-17T20:21:43.460Z,102298.22
2022-10-17T20:24:15.819Z,102297.81
2022-10-17T20:26:44.814Z,102292.75
2022-10-17T20:29:19.276Z,102291.69
2022-10-17T20:31:48.493Z,102293.13
2022-10-17T20:34:18.358Z,102291.50
2022-10-17T20:36:47.420Z,102292.56
2022-10-17T20:39:17.900Z,102283.63
2022-10-17T20:41:46.746Z,102278.59
2022-10-17T20:44:15.737Z,102279.28
2022-10-17T20:46:57.656Z,102286.41
2022-10-17T20:49:31.031Z,102293.13
2022-10-17T20:52:00.653Z,102306.22
2022-10-17T20:54:30.442Z,102294.06
2022-10-17T20:57:02.434Z,102305.56
2022-10-17T20:59:35.116Z,102303.44
2022-10-17T21:02:05.186Z,102300.56
2022-10-17T21:04:45.847Z,102305.19
2022-10-17T21:07:15.740Z,102303.03
2022-10-17T21:09:46.325Z,102303.28
2022-10-17T21:12:21.736Z,102301.81
2022-10-17T21:14:59.964Z,102304.84
2022-10-17T21:17:28.386Z,102312.63
2022-10-17T21:19:56.932Z,102308.31
2022-10-17T21:22:25.596Z,102315.31
2022-10-17T21:24:53.947Z,102308.88
2022-10-17T21:27:22.575Z,102308.09
2022-10-17T21:29:51.944Z,102321.88
2022-10-17T21:32:32.140Z,102326.00
2022-10-17T21:35:08.955Z,102323.41
2022-10-17T21:37:37.638Z,102329.25
2022-10-17T21:40:06.597Z,102328.84
2022-10-17T21:42:34.961Z,102323.97
2022-10-17T21:45:10.510Z,102332.91
2022-10-17T21:47:54.857Z,102334.81
2022-10-17T21:50:32.837Z,102341.19
2022-10-17T21:53:01.204Z,102346.31
2022-10-17T21:55:29.564Z,102348.38
2022-10-17T21:57:58.067Z,102355.91
2022-10-17T22:00:26.474Z,102355.91
2022-10-17T22:02:54.852Z,102354.75
2022-10-17T22:05:23.308Z,102354.91
2022-10-17T22:07:51.636Z,102357.31
2022-10-17T22:10:19.971Z,102358.16
2022-10-17T22:12:48.383Z,102362.44
2022-10-17T22:15:16.915Z,102363.91
2022-10-17T22:17:45.363Z,102369.38
2022-10-17T22:20:13.936Z,102367.63
2022-10-17T22:22:42.290Z,102361.88
2022-10-17T22:25:10.649Z,102368.13
2022-10-17T22:27:39.130Z,102363.69
2022-10-17T22:30:08.518Z,102360.84
2022-10-17T22:32:36.951Z,102367.69
2022-10-17T22:35:05.819Z,102367.75
2022-10-17T22:37:34.166Z,102368.78
2022-10-17T22:40:03.650Z,102362.72
2022-10-17T22:42:34.391Z,102368.34
2022-10-17T22:45:03.253Z,102365.25
2022-10-17T22:47:32.223Z,102369.78
2022-10-17T22:50:00.884Z,102366.38
2022-10-17T22:52:29.752Z,102367.97
2022-10-17T22:54:58.543Z,102370.34
2022-10-17T22:57:27.078Z,102374.78
2022-10-17T22:59:55.422Z,102378.72
2022-10-17T23:02:23.832Z,102379.72
2022-10-17T23:04:52.171Z,102375.28
2022-10-17T23:07:21.562Z,102379.03
2022-10-17T23:09:50.395Z,102376.81
2022-10-17T23:12:19.412Z,102373.31
2022-10-17T23:14:47.892Z,102375.09
2022-10-17T23:17:16.536Z,102385.97
2022-10-17T23:19:45.018Z,102375.81
2022-10-17T23:22:13.456Z,102379.00
2022-10-17T23:24:41.805Z,102380.19
2022-10-17T23:27:10.373Z,102369.53
2022-10-17T23:29:38.676Z,102369.84
2022-10-17T23:32:07.124Z,102372.31
2022-10-17T23:34:35.481Z,102357.88
2022-10-17T23:37:03.880Z,102361.63
2022-10-17T23:39:32.268Z,102373.59
2022-10-17T23:42:00.740Z,102373.72
2022-10-17T23:44:29.514Z,102371.63
2022-10-17T23:46:57.869Z,102373.28
2022-10-17T23:49:28.326Z,102375.75
2022-10-17T23:51:56.747Z,102370.63
2022-10-17T23:54:25.217Z,102382.53
2022-10-17T23:56:53.633Z,102370.84
2022-10-17T23:59:22.012Z,102378.84
